Language selection

My Weather Profile Weather Topics  | 

Northumberland Strait - western half: Past 24 Hour Conditions

 

West Chedabucto Bay - 44489

06:00 AM ADT 24 May 2022Buoy position: 45.49N 61.14W
Disclaimer

This table is a summary of hourly weather conditions for the past 24 hours.
Please note that these observations might not always be representative of weather conditions over their associated marine area.

Date / Time
(ADT)
Wind(knots) Wave height(m) Wave period(s) Pressure(kPa) Air tempC) Water tempC)
24 May 2022
6:00 NNW 13 gust 16 0.3 4.4 102.3 6 7
5:00 NW 12 gust 13 0.3 5.9 102.2 6 7
4:00 NNW 9 gust 11 0.4 5.9 102.2 6 7
3:00 NNW 8 gust 10 0.4 5.6 102.2 6 7
2:00 NNW 11 gust 13 0.4 5.8 102.2 6 7
1:00 NNW 11 gust 14 0.4 5.9 102.2 6 7
0:00 NNW 8 gust 10 0.4 6.4 102.2 7 7
23 May 2022
23:00 N 8 gust 11 0.4 5.7 102.1 7 7
22:00 N 12 gust 14 0.3 5.2 102.1 8 7
21:00 N 16 gust 19 0.4 4.0 102.0 8 7
20:00 NNW 16 gust 22 0.5 4.0 101.9 9 7
19:00 NW 16 gust 19 0.6 3.6 101.8 8 7
18:00 NW 19 gust 24 0.7 3.4 101.8 8 7
17:00 NW 18 gust 22 0.5 4.1 101.7 9 7
16:00 N 13 gust 17 0.5 4.0 101.7 11 7
15:00 NNW 17 gust 21 0.5 4.7 101.6 10 7
14:00 NNW 10 gust 12 0.5 5.5 101.6 10 7
13:00 NNW 16 gust 19 0.5 4.4 101.6 11 7
12:00 NW 17 gust 20 0.6 3.9 101.5 9 7
11:00 W 11 gust 16 0.5 5.8 101.4 11 8
10:00 S 4 gust 5 0.5 6.0 101.4 10 7
9:00 SSW 5 gust 5 0.4 5.7 101.4 9 7
8:00 SSE 3 gust 5 0.4 5.2 101.5 9 7
7:00 SW 7 gust 8 0.5 4.3 101.4 10 7
6:00 SW 4 gust 8 0.6 4.5 101.4 10 8

Zoom-in to make a selection

Map of Atlantic - Newfoundland marine weather areas Banquereau - 44139 East Chedabucto Bay - 44488 West Chedabucto Bay - 44489 Blanc-Sablon Airport Cap Whittle Chevery Natashquan Airport Heath Point Îles de la Madeleine Airport Miscou Island Eskasoni (First Nations) Grand Étang Ingonish Beach North Mountain St.Paul Island J.A. Douglas McCurdy Sydney Airport Charlottetown Airport East Point North Cape Argentia Berry Hill Bonavista Burgeo Cape Race Corner Brook Daniel's Harbour Englee Ferolle Point La Scie Port aux Basques Sagona Island St. Anthony Airport St. John's Int'l Airport St. Lawrence Stephenville Airport Twillingate Winterland Branch Hill Wreckhouse Grates Cove Pool's Island Marticot Island Long Pond Cartwright Airport Mary's Harbour
Legend:
buoy Buoy
land station Land Station

Atlantic - Newfoundland Area

Another Region

What we are doing

Features

Hello Weather

Hello Weather: our upgraded telephone weather service is here. 1-833-794-3556 or 1-833-79HELLO.

Date modified: